createdAt,value
2023-02-19T00:01:31.150Z,15.43
2023-02-19T00:04:00.813Z,16.08
2023-02-19T00:06:28.711Z,14.80
2023-02-19T00:08:55.711Z,15.45
2023-02-19T00:11:24.484Z,15.65
2023-02-19T00:13:53.203Z,17.20
2023-02-19T00:16:22.371Z,16.65
2023-02-19T00:18:49.213Z,15.98
2023-02-19T00:21:16.019Z,16.60
2023-02-19T00:23:42.522Z,15.75
2023-02-19T00:26:18.135Z,17.65
2023-02-19T00:28:47.956Z,15.00
2023-02-19T00:31:19.158Z,17.27
2023-02-19T00:36:13.557Z,15.65
2023-02-19T00:38:41.839Z,15.77
2023-02-19T00:41:21.295Z,15.85
2023-02-19T00:44:01.999Z,16.60
2023-02-19T00:46:36.603Z,16.27
2023-02-19T00:49:04.195Z,16.90
2023-02-19T00:51:33.680Z,17.35
2023-02-19T00:54:00.475Z,17.90
2023-02-19T00:56:27.400Z,19.45
2023-02-19T00:58:54.171Z,17.15
2023-02-19T01:01:21.033Z,17.98
2023-02-19T01:03:47.755Z,17.63
2023-02-19T01:06:17.058Z,18.35
2023-02-19T01:08:44.334Z,18.80
2023-02-19T01:11:14.127Z,18.23
2023-02-19T01:13:43.555Z,18.15
2023-02-19T01:16:15.739Z,18.88
2023-02-19T01:18:43.209Z,18.50
2023-02-19T01:21:13.851Z,16.88
2023-02-19T01:23:40.734Z,14.35
2023-02-19T01:26:09.717Z,17.33
2023-02-19T01:28:36.315Z,18.42
2023-02-19T01:31:04.724Z,18.83
2023-02-19T01:33:31.495Z,19.08
2023-02-19T01:35:58.044Z,18.85
2023-02-19T01:38:24.624Z,18.65
2023-02-19T01:40:58.425Z,18.90
2023-02-19T01:43:25.107Z,18.25
2023-02-19T01:45:53.234Z,19.08
2023-02-19T01:48:38.370Z,19.55
2023-02-19T01:51:14.909Z,20.17
2023-02-19T01:53:44.060Z,21.58
2023-02-19T01:56:16.104Z,19.02
2023-02-19T01:58:42.782Z,21.88
2023-02-19T02:01:09.688Z,19.77
2023-02-19T02:03:38.466Z,19.58
2023-02-19T02:06:09.595Z,21.27
2023-02-19T02:08:55.367Z,23.98
2023-02-19T02:11:22.850Z,21.85
2023-02-19T02:13:49.766Z,20.67
2023-02-19T02:16:25.540Z,22.90
2023-02-19T02:18:54.788Z,21.63
2023-02-19T02:21:48.228Z,21.35
2023-02-19T02:24:36.992Z,22.23
2023-02-19T02:27:22.610Z,22.48
2023-02-19T02:30:03.674Z,22.10
2023-02-19T02:32:35.929Z,23.60
2023-02-19T02:35:13.398Z,24.15
2023-02-19T02:37:42.302Z,24.65
2023-02-19T02:40:10.845Z,22.95
2023-02-19T02:42:39.763Z,22.55
2023-02-19T02:45:35.023Z,21.80
2023-02-19T02:48:28.328Z,22.23
2023-02-19T02:51:14.775Z,23.95
2023-02-19T02:54:11.245Z,22.98
2023-02-19T02:56:41.120Z,21.13
2023-02-19T02:59:10.260Z,22.52
2023-02-19T03:02:08.687Z,21.77
2023-02-19T03:05:04.648Z,25.05
2023-02-19T03:07:41.980Z,23.60
2023-02-19T03:10:11.640Z,24.13
2023-02-19T03:12:58.567Z,24.20
2023-02-19T03:15:48.378Z,22.45
2023-02-19T03:18:34.851Z,23.35
2023-02-19T03:21:04.364Z,23.60
2023-02-19T03:23:51.674Z,25.02
2023-02-19T03:26:19.309Z,23.73
2023-02-19T03:29:09.779Z,25.60
2023-02-19T03:31:39.710Z,25.48
2023-02-19T03:34:10.769Z,24.80
2023-02-19T03:36:44.616Z,23.95
2023-02-19T03:39:14.675Z,23.95
2023-02-19T03:41:51.095Z,22.48
2023-02-19T03:44:41.011Z,23.58
2023-02-19T03:47:27.672Z,25.92
2023-02-19T03:50:06.746Z,24.98
2023-02-19T03:53:03.926Z,25.85
2023-02-19T03:55:52.472Z,26.65
2023-02-19T03:58:32.609Z,24.33
2023-02-19T04:01:04.231Z,24.15
2023-02-19T04:03:38.383Z,25.67
2023-02-19T04:06:09.802Z,24.92
2023-02-19T04:08:36.968Z,25.55
2023-02-19T04:11:06.277Z,23.90
2023-02-19T04:13:44.552Z,25.98
2023-02-19T04:16:17.897Z,25.50
2023-02-19T04:18:47.092Z,25.42
2023-02-19T04:21:14.663Z,25.08
2023-02-19T04:23:43.587Z,26.23
2023-02-19T04:26:11.482Z,26.02
2023-02-19T04:28:38.556Z,26.02
2023-02-19T04:31:05.462Z,26.17
2023-02-19T04:33:31.944Z,22.83
2023-02-19T04:35:58.440Z,24.98
2023-02-19T04:38:24.926Z,23.20
2023-02-19T04:40:51.456Z,24.25
2023-02-19T04:43:18.547Z,22.67
2023-02-19T04:45:45.056Z,23.42
2023-02-19T04:48:11.626Z,22.15
2023-02-19T04:50:39.432Z,20.27
2023-02-19T04:53:06.467Z,23.40
2023-02-19T04:55:36.731Z,19.58
2023-02-19T04:58:03.200Z,19.48
2023-02-19T05:00:29.726Z,18.08
2023-02-19T05:02:56.192Z,18.48
2023-02-19T05:05:22.733Z,15.75
2023-02-19T05:07:49.446Z,16.92
2023-02-19T05:10:16.049Z,17.33
2023-02-19T05:12:42.501Z,16.17
2023-02-19T05:15:09.170Z,16.95
2023-02-19T05:17:35.816Z,16.77
2023-02-19T05:20:02.389Z,17.00
2023-02-19T05:22:29.801Z,14.55
2023-02-19T05:24:56.296Z,15.40
2023-02-19T05:27:22.885Z,16.33
2023-02-19T05:29:49.377Z,15.88
2023-02-19T05:32:15.980Z,15.50
2023-02-19T05:34:42.781Z,15.35
2023-02-19T05:37:12.039Z,15.05
2023-02-19T05:39:38.599Z,14.30
2023-02-19T05:42:05.161Z,14.95
2023-02-19T05:44:31.868Z,14.30
2023-02-19T05:46:58.403Z,13.32
2023-02-19T05:49:25.320Z,13.82
2023-02-19T05:51:51.863Z,12.80
2023-02-19T05:54:18.375Z,12.48
2023-02-19T05:56:44.940Z,11.65
2023-02-19T05:59:22.672Z,11.60
2023-02-19T06:01:50.875Z,10.52
2023-02-19T06:04:19.852Z,11.15
2023-02-19T06:06:47.343Z,11.13
2023-02-19T06:09:14.137Z,10.48
2023-02-19T06:11:40.751Z,12.02
2023-02-19T06:14:07.497Z,11.32
2023-02-19T06:16:34.371Z,11.60
2023-02-19T06:19:04.285Z,12.10
2023-02-19T06:21:30.835Z,12.77
2023-02-19T06:23:57.467Z,11.52
2023-02-19T06:26:25.174Z,10.90
2023-02-19T06:28:53.022Z,11.60
2023-02-19T06:31:20.549Z,12.65
2023-02-19T06:33:47.178Z,11.65
2023-02-19T06:36:17.262Z,11.75
2023-02-19T06:38:44.001Z,13.88
2023-02-19T06:41:11.384Z,11.93
2023-02-19T06:43:38.213Z,12.23
2023-02-19T06:46:06.212Z,10.80
2023-02-19T06:48:33.526Z,11.30
2023-02-19T06:51:00.099Z,11.52
2023-02-19T06:53:27.581Z,11.68
2023-02-19T06:56:02.863Z,11.88
2023-02-19T06:58:29.661Z,11.23
2023-02-19T07:00:56.266Z,13.07
2023-02-19T07:03:23.147Z,13.32
2023-02-19T07:05:49.966Z,12.32
2023-02-19T07:08:19.432Z,11.88
2023-02-19T07:10:46.047Z,12.35
2023-02-19T07:13:12.642Z,12.30
2023-02-19T07:15:39.257Z,13.05
2023-02-19T07:18:10.135Z,12.65
2023-02-19T07:20:36.977Z,12.63
2023-02-19T07:23:03.587Z,11.65
2023-02-19T07:25:30.085Z,12.23
2023-02-19T07:27:56.860Z,12.63
2023-02-19T07:30:23.415Z,12.00
2023-02-19T07:32:50.156Z,11.48
2023-02-19T07:35:16.814Z,10.90
2023-02-19T07:37:43.360Z,11.32
2023-02-19T07:40:10.170Z,11.32
2023-02-19T07:42:36.656Z,9.50
2023-02-19T07:45:03.210Z,10.90
2023-02-19T07:47:30.128Z,11.43
2023-02-19T07:49:56.894Z,10.55
2023-02-19T07:52:23.655Z,11.48
2023-02-19T07:54:50.282Z,11.68
2023-02-19T07:57:16.843Z,10.77
2023-02-19T07:59:43.401Z,13.35
2023-02-19T08:02:34.989Z,11.40
2023-02-19T08:05:01.664Z,12.63
2023-02-19T08:07:35.200Z,12.88
2023-02-19T08:10:21.441Z,13.43
2023-02-19T08:13:17.010Z,12.73
2023-02-19T08:15:43.693Z,12.85
2023-02-19T08:18:10.805Z,12.32
2023-02-19T08:20:37.317Z,12.85
2023-02-19T08:23:04.039Z,12.38
2023-02-19T08:25:30.820Z,12.30
2023-02-19T08:27:57.341Z,11.88
2023-02-19T08:30:23.961Z,10.20
2023-02-19T08:32:50.562Z,11.60
2023-02-19T08:35:17.239Z,11.00
2023-02-19T08:37:43.774Z,11.40
2023-02-19T08:40:10.624Z,10.98
2023-02-19T08:42:37.482Z,11.23
2023-02-19T08:45:04.379Z,10.23
2023-02-19T08:47:31.192Z,10.25
2023-02-19T08:49:57.695Z,10.13
2023-02-19T08:52:24.251Z,9.82
2023-02-19T08:54:50.770Z,10.30
2023-02-19T08:57:17.696Z,9.07
2023-02-19T08:59:44.422Z,9.52
2023-02-19T09:02:12.643Z,8.95
2023-02-19T09:04:39.590Z,9.60
2023-02-19T09:07:07.796Z,8.98
2023-02-19T09:09:37.398Z,9.85
2023-02-19T09:12:11.446Z,9.30
2023-02-19T09:14:38.362Z,9.40
2023-02-19T09:17:06.269Z,9.25
2023-02-19T09:19:33.095Z,8.98
2023-02-19T09:21:59.696Z,9.70
2023-02-19T09:24:26.377Z,8.80
2023-02-19T09:26:54.443Z,8.43
2023-02-19T09:29:22.557Z,9.02
2023-02-19T09:31:49.581Z,7.93
2023-02-19T09:34:16.232Z,8.00
2023-02-19T09:36:42.765Z,8.10
2023-02-19T09:39:10.452Z,7.75
2023-02-19T09:41:46.335Z,7.22
2023-02-19T09:44:18.451Z,7.22
2023-02-19T09:46:48.151Z,7.72
2023-02-19T09:49:29.270Z,7.75
2023-02-19T09:52:04.260Z,7.38
2023-02-19T09:54:31.963Z,7.35
2023-02-19T09:57:01.327Z,7.78
2023-02-19T09:59:40.476Z,6.93
2023-02-19T10:02:21.267Z,6.47
2023-02-19T10:04:48.660Z,7.30
2023-02-19T10:07:17.217Z,6.10
2023-02-19T10:09:53.351Z,7.05
2023-02-19T10:12:26.970Z,6.85
2023-02-19T10:15:00.136Z,6.72
2023-02-19T10:17:30.273Z,7.20
2023-02-19T10:19:57.711Z,6.38
2023-02-19T10:22:25.105Z,6.45
2023-02-19T10:24:55.687Z,4.93
2023-02-19T10:27:22.412Z,5.43
2023-02-19T10:29:50.325Z,5.68
2023-02-19T10:32:24.049Z,4.97
2023-02-19T10:35:11.798Z,5.78
2023-02-19T10:37:46.600Z,5.28
2023-02-19T10:40:21.039Z,6.10
2023-02-19T10:42:56.446Z,5.97
2023-02-19T10:45:44.109Z,6.65
2023-02-19T10:48:38.364Z,7.22
2023-02-19T10:51:21.810Z,7.65
2023-02-19T10:54:02.867Z,7.72
2023-02-19T10:56:33.689Z,7.15
2023-02-19T10:59:23.339Z,6.93
2023-02-19T11:02:03.734Z,6.13
2023-02-19T11:04:35.026Z,4.73
2023-02-19T11:07:15.069Z,4.13
2023-02-19T11:09:45.346Z,4.25
2023-02-19T11:12:13.123Z,4.90
2023-02-19T11:14:42.738Z,4.53
2023-02-19T11:17:25.369Z,5.82
2023-02-19T11:19:54.356Z,6.95
2023-02-19T11:22:28.723Z,7.03
2023-02-19T11:24:58.503Z,7.95
2023-02-19T11:27:26.487Z,8.60
2023-02-19T11:29:53.004Z,8.55
2023-02-19T11:32:27.882Z,9.40
2023-02-19T11:35:14.547Z,10.07
2023-02-19T11:37:53.824Z,10.25
2023-02-19T11:40:22.316Z,10.63
2023-02-19T11:42:58.814Z,10.73
2023-02-19T11:45:40.778Z,10.02
2023-02-19T11:48:42.420Z,11.73
2023-02-19T11:53:37.259Z,9.98
2023-02-19T11:56:33.757Z,7.95
2023-02-19T11:59:05.687Z,7.45
2023-02-19T12:02:09.964Z,7.43
2023-02-19T12:05:09.979Z,7.22
2023-02-19T12:07:49.063Z,7.20
2023-02-19T12:10:36.712Z,8.63
2023-02-19T12:13:15.090Z,7.60
2023-02-19T12:16:16.042Z,8.88
2023-02-19T12:18:57.477Z,7.60
2023-02-19T12:21:43.409Z,8.38
2023-02-19T12:24:22.991Z,7.75
2023-02-19T12:27:03.595Z,7.95
2023-02-19T12:29:42.863Z,7.43
2023-02-19T12:32:27.877Z,7.93
2023-02-19T12:35:04.906Z,8.07
2023-02-19T12:37:57.056Z,7.38
2023-02-19T12:40:26.397Z,8.75
2023-02-19T12:43:13.735Z,7.53
2023-02-19T12:45:48.924Z,8.05
2023-02-19T12:48:24.091Z,8.77
2023-02-19T12:50:55.776Z,8.48
2023-02-19T12:53:38.307Z,8.32
2023-02-19T12:56:11.061Z,8.88
2023-02-19T12:58:43.169Z,8.88
2023-02-19T13:01:16.018Z,9.15
2023-02-19T13:03:49.248Z,10.27
2023-02-19T13:06:27.276Z,9.98
2023-02-19T13:09:06.298Z,9.13
2023-02-19T13:11:44.254Z,10.23
2023-02-19T13:14:34.626Z,10.00
2023-02-19T13:17:08.609Z,11.23
2023-02-19T13:19:36.935Z,9.52
2023-02-19T13:22:34.786Z,10.07
2023-02-19T13:25:02.158Z,11.00
2023-02-19T13:27:48.852Z,10.68
2023-02-19T13:30:31.172Z,9.52
2023-02-19T13:33:22.523Z,11.18
2023-02-19T13:36:05.879Z,10.30
2023-02-19T13:38:41.265Z,10.77
2023-02-19T13:41:17.887Z,12.25
2023-02-19T13:43:46.829Z,10.38
2023-02-19T13:46:16.291Z,12.00
2023-02-19T13:48:44.479Z,12.77
2023-02-19T13:51:18.676Z,13.15
2023-02-19T13:53:45.169Z,12.40
2023-02-19T13:56:29.886Z,12.50
2023-02-19T13:59:22.517Z,12.38
2023-02-19T14:01:54.994Z,11.57
2023-02-19T14:04:24.637Z,10.60
2023-02-19T14:07:03.251Z,12.00
2023-02-19T14:09:39.849Z,11.30
2023-02-19T14:12:15.036Z,10.80
2023-02-19T14:14:51.592Z,10.27
2023-02-19T14:17:36.221Z,11.35
2023-02-19T14:20:08.572Z,11.93
2023-02-19T14:22:47.640Z,10.93
2023-02-19T14:25:31.332Z,11.68
2023-02-19T14:28:09.632Z,11.85
2023-02-19T14:30:51.441Z,12.77
2023-02-19T14:33:20.998Z,11.70
2023-02-19T14:35:51.072Z,11.20
2023-02-19T14:38:24.020Z,9.27
2023-02-19T14:40:52.960Z,7.20
2023-02-19T14:43:21.474Z,7.72
2023-02-19T14:45:52.968Z,6.97
2023-02-19T14:48:35.347Z,7.22
2023-02-19T14:51:10.513Z,6.88
2023-02-19T14:53:39.679Z,7.15
2023-02-19T14:56:07.970Z,7.70
2023-02-19T14:58:36.870Z,7.95
2023-02-19T15:01:05.361Z,7.60
2023-02-19T15:03:34.801Z,6.80
2023-02-19T15:06:17.461Z,7.28
2023-02-19T15:08:46.940Z,7.00
2023-02-19T15:11:20.165Z,7.03
2023-02-19T15:13:50.984Z,6.22
2023-02-19T15:16:23.672Z,7.28
2023-02-19T15:18:51.964Z,8.00
2023-02-19T15:21:30.099Z,8.82
2023-02-19T15:23:59.514Z,7.43
2023-02-19T15:26:54.002Z,7.38
2023-02-19T15:29:23.030Z,7.60
2023-02-19T15:31:54.932Z,7.22
2023-02-19T15:34:22.995Z,6.63
2023-02-19T15:36:51.586Z,7.18
2023-02-19T15:39:51.049Z,7.90
2023-02-19T15:42:21.012Z,8.45
2023-02-19T15:45:01.929Z,8.73
2023-02-19T15:47:33.222Z,7.95
2023-02-19T15:50:11.433Z,7.63
2023-02-19T15:52:49.699Z,7.93
2023-02-19T15:55:20.904Z,9.05
2023-02-19T15:57:54.646Z,8.00
2023-02-19T16:00:27.171Z,8.48
2023-02-19T16:02:53.714Z,8.00
2023-02-19T16:05:25.752Z,6.80
2023-02-19T16:08:17.504Z,6.90
2023-02-19T16:10:55.323Z,6.80
2023-02-19T16:13:30.388Z,6.18
2023-02-19T16:16:24.356Z,5.50
2023-02-19T16:18:52.142Z,3.22
2023-02-19T16:21:22.074Z,2.53
2023-02-19T16:23:54.459Z,2.25
2023-02-19T16:26:21.516Z,2.50
2023-02-19T16:28:54.629Z,2.28
2023-02-19T16:31:22.645Z,2.45
2023-02-19T16:33:50.242Z,1.90
2023-02-19T16:36:16.689Z,1.88
2023-02-19T16:39:07.811Z,2.58
2023-02-19T16:41:39.878Z,2.85
2023-02-19T16:44:25.061Z,3.67
2023-02-19T16:46:57.191Z,3.70
2023-02-19T16:49:24.315Z,3.63
2023-02-19T16:51:51.210Z,4.85
2023-02-19T16:54:17.712Z,4.97
2023-02-19T16:56:44.206Z,4.10
2023-02-19T16:59:10.753Z,4.60
2023-02-19T17:01:37.639Z,4.22
2023-02-19T17:04:09.785Z,4.57
2023-02-19T17:06:39.639Z,4.63
2023-02-19T17:09:08.436Z,4.50
2023-02-19T17:11:35.373Z,4.15
2023-02-19T17:14:02.327Z,4.45
2023-02-19T17:16:40.383Z,4.07
2023-02-19T17:19:16.818Z,4.53
2023-02-19T17:21:44.428Z,4.97
2023-02-19T17:24:11.571Z,5.00
2023-02-19T17:26:38.097Z,4.68
2023-02-19T17:29:06.796Z,4.03
2023-02-19T17:31:34.160Z,5.35
2023-02-19T17:34:00.989Z,4.88
2023-02-19T17:36:32.232Z,5.50
2023-02-19T17:41:25.990Z,5.20
2023-02-19T17:43:52.927Z,6.38
2023-02-19T17:46:22.240Z,4.78
2023-02-19T17:48:48.841Z,5.38
2023-02-19T17:51:15.411Z,8.88
2023-02-19T17:53:42.483Z,7.97
2023-02-19T17:56:10.438Z,4.97
2023-02-19T17:58:36.987Z,4.20
2023-02-19T18:01:03.609Z,3.97
2023-02-19T18:03:30.211Z,3.22
2023-02-19T18:05:56.761Z,3.42
2023-02-19T18:08:23.261Z,2.88
2023-02-19T18:10:49.791Z,2.42
2023-02-19T18:13:16.301Z,2.97
2023-02-19T18:15:42.880Z,2.33
2023-02-19T18:18:09.752Z,2.38
2023-02-19T18:20:36.494Z,2.35
2023-02-19T18:23:03.062Z,2.80
2023-02-19T18:25:29.908Z,2.55
2023-02-19T18:27:58.512Z,2.47
2023-02-19T18:30:25.290Z,2.88
2023-02-19T18:32:51.905Z,2.55
2023-02-19T18:35:19.575Z,2.55
2023-02-19T18:37:49.970Z,2.90
2023-02-19T18:40:16.674Z,2.20
2023-02-19T18:42:43.249Z,2.42
2023-02-19T18:45:09.793Z,2.00
2023-02-19T18:47:36.937Z,2.60
2023-02-19T18:50:04.156Z,1.92
2023-02-19T18:52:32.397Z,1.95
2023-02-19T18:54:59.506Z,2.20
2023-02-19T18:57:26.434Z,2.03
2023-02-19T18:59:53.190Z,1.88
2023-02-19T19:02:19.917Z,1.67
2023-02-19T19:04:52.159Z,1.70
2023-02-19T19:07:19.850Z,2.83
2023-02-19T19:09:47.315Z,2.05
2023-02-19T19:12:14.629Z,2.22
2023-02-19T19:14:41.299Z,2.80
2023-02-19T19:17:07.995Z,2.35
2023-02-19T19:19:34.834Z,2.33
2023-02-19T19:22:01.574Z,1.58
2023-02-19T19:24:28.179Z,1.80
2023-02-19T19:26:54.849Z,1.65
2023-02-19T19:29:22.355Z,2.10
2023-02-19T19:31:50.164Z,3.03
2023-02-19T19:34:17.098Z,2.28
2023-02-19T19:36:43.768Z,4.15
2023-02-19T19:39:10.948Z,4.20
2023-02-19T19:41:37.514Z,3.08
2023-02-19T19:44:05.318Z,2.72
2023-02-19T19:46:32.770Z,3.45
2023-02-19T19:48:59.744Z,2.60
2023-02-19T19:51:33.515Z,2.58
2023-02-19T19:54:01.890Z,2.50
2023-02-19T19:56:28.446Z,2.50
2023-02-19T19:58:55.274Z,2.45
2023-02-19T20:01:23.053Z,2.80
2023-02-19T20:03:51.017Z,2.40
2023-02-19T20:06:28.866Z,2.03
2023-02-19T20:08:55.697Z,1.90
2023-02-19T20:11:22.833Z,1.70
2023-02-19T20:13:49.556Z,1.65
2023-02-19T20:16:16.284Z,1.83
2023-02-19T20:18:42.785Z,2.00
2023-02-19T20:21:10.463Z,2.00
2023-02-19T20:23:40.339Z,2.33
2023-02-19T20:26:07.248Z,2.00
2023-02-19T20:28:34.056Z,2.08
2023-02-19T20:31:00.656Z,2.58
2023-02-19T20:33:27.194Z,2.08
2023-02-19T20:35:56.908Z,2.95
2023-02-19T20:38:23.468Z,2.47
2023-02-19T20:40:50.016Z,2.70
2023-02-19T20:43:48.635Z,2.90
2023-02-19T20:46:15.608Z,2.17
2023-02-19T20:48:42.536Z,2.17
2023-02-19T20:51:09.073Z,2.58
2023-02-19T20:53:36.825Z,2.15
2023-02-19T20:56:06.098Z,2.70
2023-02-19T20:58:32.618Z,2.55
2023-02-19T21:00:59.310Z,2.58
2023-02-19T21:03:25.900Z,3.13
2023-02-19T21:05:52.514Z,3.55
2023-02-19T21:08:19.150Z,2.78
2023-02-19T21:10:46.489Z,3.47
2023-02-19T21:13:13.404Z,2.97
2023-02-19T21:15:40.110Z,2.58
2023-02-19T21:18:06.866Z,3.50
2023-02-19T21:20:33.626Z,3.00
2023-02-19T21:23:00.768Z,2.88
2023-02-19T21:25:27.753Z,2.95
2023-02-19T21:27:54.456Z,2.83
2023-02-19T21:30:21.137Z,3.40
2023-02-19T21:32:47.815Z,3.58
2023-02-19T21:35:17.214Z,4.65
2023-02-19T21:37:44.478Z,3.85
2023-02-19T21:40:14.559Z,5.47
2023-02-19T21:42:41.164Z,4.00
2023-02-19T21:45:08.376Z,4.18
2023-02-19T21:47:37.588Z,4.18
2023-02-19T21:50:07.148Z,3.92
2023-02-19T21:52:36.898Z,3.58
2023-02-19T21:55:03.659Z,4.15
2023-02-19T21:57:30.308Z,4.43
2023-02-19T21:59:57.051Z,3.13
2023-02-19T22:02:24.282Z,3.10
2023-02-19T22:04:53.527Z,3.00
2023-02-19T22:07:21.167Z,3.10
2023-02-19T22:09:49.322Z,3.15
2023-02-19T22:12:16.877Z,3.40
2023-02-19T22:14:43.550Z,3.03
2023-02-19T22:17:10.190Z,3.17
2023-02-19T22:19:36.837Z,3.13
2023-02-19T22:22:03.748Z,3.83
2023-02-19T22:24:30.300Z,2.88
2023-02-19T22:26:58.056Z,3.15
2023-02-19T22:29:24.971Z,3.20
2023-02-19T22:31:52.756Z,3.22
2023-02-19T22:34:19.495Z,3.08
2023-02-19T22:36:46.067Z,2.78
2023-02-19T22:39:25.037Z,3.67
2023-02-19T22:41:52.181Z,3.30
2023-02-19T22:44:19.197Z,3.75
2023-02-19T22:46:48.271Z,3.38
2023-02-19T22:49:16.296Z,3.65
2023-02-19T22:51:52.263Z,3.97
2023-02-19T22:54:24.840Z,4.63
2023-02-19T22:56:51.615Z,4.35
2023-02-19T22:59:18.543Z,4.68
2023-02-19T23:01:45.255Z,4.43
2023-02-19T23:04:11.997Z,5.47
2023-02-19T23:06:41.650Z,4.95
2023-02-19T23:09:11.162Z,3.88
2023-02-19T23:11:39.036Z,6.88
2023-02-19T23:14:06.757Z,4.85
2023-02-19T23:16:35.840Z,4.82
2023-02-19T23:19:04.905Z,5.07
2023-02-19T23:21:31.752Z,5.35
2023-02-19T23:23:59.026Z,5.45
2023-02-19T23:26:25.950Z,7.55
2023-02-19T23:28:52.485Z,6.63
2023-02-19T23:31:19.129Z,7.20
2023-02-19T23:33:45.785Z,6.80
2023-02-19T23:36:14.075Z,7.38
2023-02-19T23:38:42.500Z,6.72
2023-02-19T23:41:14.518Z,7.90
2023-02-19T23:43:41.347Z,8.13
2023-02-19T23:46:08.453Z,7.88
2023-02-19T23:48:35.356Z,7.80
2023-02-19T23:51:02.006Z,8.77
2023-02-19T23:53:28.519Z,8.25
2023-02-19T23:55:55.275Z,8.60
2023-02-19T23:58:21.813Z,11.07
